sensor_id;sensor_type;location;lat;lon;timestamp;P1;durP1;ratioP1;P2;durP2;ratioP2
58083;SDS011;43882;51.550;11.858;2022-10-24T00:00:10;19.77;;;7.25;;
58083;SDS011;43882;51.550;11.858;2022-10-24T00:02:37;19.02;;;7.22;;
58083;SDS011;43882;51.550;11.858;2022-10-24T00:05:03;20.83;;;7.70;;
58083;SDS011;43882;51.550;11.858;2022-10-24T00:07:29;20.40;;;7.43;;
58083;SDS011;43882;51.550;11.858;2022-10-24T00:09:55;19.77;;;7.55;;
58083;SDS011;43882;51.550;11.858;2022-10-24T00:12:21;23.67;;;8.10;;
58083;SDS011;43882;51.550;11.858;2022-10-24T00:14:47;20.05;;;8.20;;
58083;SDS011;43882;51.550;11.858;2022-10-24T00:17:13;22.98;;;9.38;;
58083;SDS011;43882;51.550;11.858;2022-10-24T00:19:39;24.75;;;9.73;;
58083;SDS011;43882;51.550;11.858;2022-10-24T00:22:06;29.50;;;12.07;;
58083;SDS011;43882;51.550;11.858;2022-10-24T00:24:32;31.88;;;13.20;;
58083;SDS011;43882;51.550;11.858;2022-10-24T00:26:58;32.40;;;14.20;;
58083;SDS011;43882;51.550;11.858;2022-10-24T00:29:24;32.67;;;14.00;;
58083;SDS011;43882;51.550;11.858;2022-10-24T00:31:50;37.83;;;15.93;;
58083;SDS011;43882;51.550;11.858;2022-10-24T00:34:16;34.67;;;16.45;;
58083;SDS011;43882;51.550;11.858;2022-10-24T00:36:42;36.92;;;16.40;;
58083;SDS011;43882;51.550;11.858;2022-10-24T00:39:09;33.65;;;14.80;;
58083;SDS011;43882;51.550;11.858;2022-10-24T00:41:37;37.55;;;15.00;;
58083;SDS011;43882;51.550;11.858;2022-10-24T00:46:51;31.35;;;13.48;;
58083;SDS011;43882;51.550;11.858;2022-10-24T00:49:23;33.08;;;12.60;;
58083;SDS011;43882;51.550;11.858;2022-10-24T00:51:55;31.80;;;14.05;;
58083;SDS011;43882;51.550;11.858;2022-10-24T00:54:25;27.17;;;11.77;;
58083;SDS011;43882;51.550;11.858;2022-10-24T00:59:26;29.55;;;11.93;;
58083;SDS011;43882;51.550;11.858;2022-10-24T01:01:52;29.77;;;11.88;;
58083;SDS011;43882;51.550;11.858;2022-10-24T01:04:19;27.73;;;11.82;;
58083;SDS011;43882;51.550;11.858;2022-10-24T01:06:46;27.95;;;11.23;;
58083;SDS011;43882;51.550;11.858;2022-10-24T01:15:41;25.45;;;9.82;;
58083;SDS011;43882;51.550;11.858;2022-10-24T01:18:12;28.23;;;10.65;;
58083;SDS011;43882;51.550;11.858;2022-10-24T01:21:05;25.00;;;11.13;;
58083;SDS011;43882;51.550;11.858;2022-10-24T01:26:58;22.85;;;9.77;;
58083;SDS011;43882;51.550;11.858;2022-10-24T01:35:02;21.98;;;8.80;;
58083;SDS011;43882;51.550;11.858;2022-10-24T01:40:22;21.55;;;8.82;;
58083;SDS011;43882;51.550;11.858;2022-10-24T01:42:53;23.27;;;8.40;;
58083;SDS011;43882;51.550;11.858;2022-10-24T01:45:32;21.75;;;8.32;;
58083;SDS011;43882;51.550;11.858;2022-10-24T01:48:01;22.33;;;9.05;;
58083;SDS011;43882;51.550;11.858;2022-10-24T01:50:28;21.70;;;8.75;;
58083;SDS011;43882;51.550;11.858;2022-10-24T01:52:57;21.17;;;8.60;;
58083;SDS011;43882;51.550;11.858;2022-10-24T01:55:24;20.38;;;8.23;;
58083;SDS011;43882;51.550;11.858;2022-10-24T01:57:50;21.80;;;8.32;;
58083;SDS011;43882;51.550;11.858;2022-10-24T02:00:20;21.55;;;8.05;;
58083;SDS011;43882;51.550;11.858;2022-10-24T02:02:49;22.63;;;7.60;;
58083;SDS011;43882;51.550;11.858;2022-10-24T02:05:41;19.65;;;7.28;;
58083;SDS011;43882;51.550;11.858;2022-10-24T02:08:21;19.20;;;7.28;;
58083;SDS011;43882;51.550;11.858;2022-10-24T02:10:51;20.50;;;7.20;;
58083;SDS011;43882;51.550;11.858;2022-10-24T02:13:25;17.52;;;6.45;;
58083;SDS011;43882;51.550;11.858;2022-10-24T02:16:24;19.73;;;7.53;;
58083;SDS011;43882;51.550;11.858;2022-10-24T02:18:51;18.60;;;7.50;;
58083;SDS011;43882;51.550;11.858;2022-10-24T02:21:36;20.35;;;7.80;;
58083;SDS011;43882;51.550;11.858;2022-10-24T02:24:20;20.05;;;7.30;;
58083;SDS011;43882;51.550;11.858;2022-10-24T02:29:28;18.67;;;7.15;;
58083;SDS011;43882;51.550;11.858;2022-10-24T02:31:56;21.25;;;7.50;;
58083;SDS011;43882;51.550;11.858;2022-10-24T02:34:23;18.27;;;6.63;;
58083;SDS011;43882;51.550;11.858;2022-10-24T02:36:52;17.63;;;6.82;;
58083;SDS011;43882;51.550;11.858;2022-10-24T02:39:19;18.33;;;6.65;;
58083;SDS011;43882;51.550;11.858;2022-10-24T02:41:46;17.92;;;6.60;;
58083;SDS011;43882;51.550;11.858;2022-10-24T02:44:12;18.48;;;6.90;;
58083;SDS011;43882;51.550;11.858;2022-10-24T02:46:40;20.23;;;7.22;;
58083;SDS011;43882;51.550;11.858;2022-10-24T02:49:07;18.33;;;6.82;;
58083;SDS011;43882;51.550;11.858;2022-10-24T02:51:35;19.77;;;6.70;;
58083;SDS011;43882;51.550;11.858;2022-10-24T02:54:03;18.27;;;6.55;;
58083;SDS011;43882;51.550;11.858;2022-10-24T02:56:30;17.52;;;6.43;;
58083;SDS011;43882;51.550;11.858;2022-10-24T02:58:56;17.35;;;6.18;;
58083;SDS011;43882;51.550;11.858;2022-10-24T03:01:22;20.35;;;6.80;;
58083;SDS011;43882;51.550;11.858;2022-10-24T03:03:48;17.08;;;6.15;;
58083;SDS011;43882;51.550;11.858;2022-10-24T03:06:15;20.13;;;6.35;;
58083;SDS011;43882;51.550;11.858;2022-10-24T03:08:41;17.85;;;6.22;;
58083;SDS011;43882;51.550;11.858;2022-10-24T03:11:07;18.23;;;6.63;;
58083;SDS011;43882;51.550;11.858;2022-10-24T03:13:33;20.58;;;7.50;;
58083;SDS011;43882;51.550;11.858;2022-10-24T03:15:59;18.17;;;6.45;;
58083;SDS011;43882;51.550;11.858;2022-10-24T03:18:25;19.50;;;6.65;;
58083;SDS011;43882;51.550;11.858;2022-10-24T03:20:51;18.63;;;6.25;;
58083;SDS011;43882;51.550;11.858;2022-10-24T03:23:17;17.38;;;6.18;;
58083;SDS011;43882;51.550;11.858;2022-10-24T03:25:45;17.25;;;6.20;;
58083;SDS011;43882;51.550;11.858;2022-10-24T03:28:12;17.77;;;6.53;;
58083;SDS011;43882;51.550;11.858;2022-10-24T03:30:38;18.77;;;6.20;;
58083;SDS011;43882;51.550;11.858;2022-10-24T03:33:04;19.42;;;6.05;;
58083;SDS011;43882;51.550;11.858;2022-10-24T03:35:30;16.92;;;5.80;;
58083;SDS011;43882;51.550;11.858;2022-10-24T03:37:56;19.27;;;6.53;;
58083;SDS011;43882;51.550;11.858;2022-10-24T03:40:22;17.88;;;6.22;;
58083;SDS011;43882;51.550;11.858;2022-10-24T03:42:48;18.35;;;6.22;;
58083;SDS011;43882;51.550;11.858;2022-10-24T03:45:15;19.20;;;6.95;;
58083;SDS011;43882;51.550;11.858;2022-10-24T03:47:41;18.17;;;6.50;;
58083;SDS011;43882;51.550;11.858;2022-10-24T03:50:07;19.05;;;7.32;;
58083;SDS011;43882;51.550;11.858;2022-10-24T03:52:33;18.13;;;6.18;;
58083;SDS011;43882;51.550;11.858;2022-10-24T03:54:59;17.83;;;5.97;;
58083;SDS011;43882;51.550;11.858;2022-10-24T03:57:25;17.42;;;6.00;;
58083;SDS011;43882;51.550;11.858;2022-10-24T03:59:51;17.42;;;6.57;;
58083;SDS011;43882;51.550;11.858;2022-10-24T04:02:17;18.17;;;6.63;;
58083;SDS011;43882;51.550;11.858;2022-10-24T04:04:44;18.33;;;6.28;;
58083;SDS011;43882;51.550;11.858;2022-10-24T04:07:10;16.77;;;5.82;;
58083;SDS011;43882;51.550;11.858;2022-10-24T04:09:36;18.48;;;5.60;;
58083;SDS011;43882;51.550;11.858;2022-10-24T04:12:02;19.80;;;6.32;;
58083;SDS011;43882;51.550;11.858;2022-10-24T04:14:28;19.35;;;6.22;;
58083;SDS011;43882;51.550;11.858;2022-10-24T04:16:54;18.65;;;6.65;;
58083;SDS011;43882;51.550;11.858;2022-10-24T04:19:20;20.70;;;7.10;;
58083;SDS011;43882;51.550;11.858;2022-10-24T04:21:47;19.35;;;6.95;;
58083;SDS011;43882;51.550;11.858;2022-10-24T04:24:14;18.40;;;6.07;;
58083;SDS011;43882;51.550;11.858;2022-10-24T04:26:40;18.38;;;6.93;;
58083;SDS011;43882;51.550;11.858;2022-10-24T04:29:06;17.00;;;6.97;;
58083;SDS011;43882;51.550;11.858;2022-10-24T04:31:32;18.13;;;6.45;;
58083;SDS011;43882;51.550;11.858;2022-10-24T04:33:58;19.30;;;6.00;;
58083;SDS011;43882;51.550;11.858;2022-10-24T04:36:24;18.63;;;6.07;;
58083;SDS011;43882;51.550;11.858;2022-10-24T04:38:50;19.17;;;5.88;;
58083;SDS011;43882;51.550;11.858;2022-10-24T04:41:17;19.80;;;5.57;;
58083;SDS011;43882;51.550;11.858;2022-10-24T04:43:43;19.67;;;6.18;;
58083;SDS011;43882;51.550;11.858;2022-10-24T04:46:09;22.50;;;6.22;;
58083;SDS011;43882;51.550;11.858;2022-10-24T04:48:35;21.15;;;6.15;;
58083;SDS011;43882;51.550;11.858;2022-10-24T04:51:01;21.30;;;6.88;;
58083;SDS011;43882;51.550;11.858;2022-10-24T04:53:27;21.35;;;7.13;;
58083;SDS011;43882;51.550;11.858;2022-10-24T04:55:53;21.98;;;7.20;;
58083;SDS011;43882;51.550;11.858;2022-10-24T04:58:19;18.90;;;7.28;;
58083;SDS011;43882;51.550;11.858;2022-10-24T05:00:46;19.52;;;6.68;;
58083;SDS011;43882;51.550;11.858;2022-10-24T05:03:15;19.60;;;6.47;;
58083;SDS011;43882;51.550;11.858;2022-10-24T05:05:42;19.63;;;6.78;;
58083;SDS011;43882;51.550;11.858;2022-10-24T05:08:08;23.88;;;6.55;;
58083;SDS011;43882;51.550;11.858;2022-10-24T05:10:35;20.75;;;6.15;;
58083;SDS011;43882;51.550;11.858;2022-10-24T05:13:01;20.15;;;6.72;;
58083;SDS011;43882;51.550;11.858;2022-10-24T05:15:27;18.58;;;6.20;;
58083;SDS011;43882;51.550;11.858;2022-10-24T05:17:54;21.90;;;6.22;;
58083;SDS011;43882;51.550;11.858;2022-10-24T05:20:20;21.45;;;7.03;;
58083;SDS011;43882;51.550;11.858;2022-10-24T05:22:47;19.40;;;5.82;;
58083;SDS011;43882;51.550;11.858;2022-10-24T05:25:13;17.98;;;6.10;;
58083;SDS011;43882;51.550;11.858;2022-10-24T05:27:39;20.50;;;5.97;;
58083;SDS011;43882;51.550;11.858;2022-10-24T05:30:05;21.40;;;6.25;;
58083;SDS011;43882;51.550;11.858;2022-10-24T05:32:32;19.80;;;6.20;;
58083;SDS011;43882;51.550;11.858;2022-10-24T05:34:58;17.80;;;5.97;;
58083;SDS011;43882;51.550;11.858;2022-10-24T05:37:24;17.25;;;6.03;;
58083;SDS011;43882;51.550;11.858;2022-10-24T05:39:50;19.38;;;5.70;;
58083;SDS011;43882;51.550;11.858;2022-10-24T05:42:16;19.13;;;6.47;;
58083;SDS011;43882;51.550;11.858;2022-10-24T05:44:43;20.90;;;5.75;;
58083;SDS011;43882;51.550;11.858;2022-10-24T05:47:09;18.15;;;6.05;;
58083;SDS011;43882;51.550;11.858;2022-10-24T05:49:35;18.23;;;5.70;;
58083;SDS011;43882;51.550;11.858;2022-10-24T05:52:01;19.23;;;6.20;;
58083;SDS011;43882;51.550;11.858;2022-10-24T05:54:27;21.27;;;6.18;;
58083;SDS011;43882;51.550;11.858;2022-10-24T05:56:54;19.35;;;5.85;;
58083;SDS011;43882;51.550;11.858;2022-10-24T05:59:20;18.77;;;6.47;;
58083;SDS011;43882;51.550;11.858;2022-10-24T06:01:46;20.60;;;6.03;;
58083;SDS011;43882;51.550;11.858;2022-10-24T06:04:12;18.45;;;5.57;;
58083;SDS011;43882;51.550;11.858;2022-10-24T06:06:39;18.52;;;5.63;;
58083;SDS011;43882;51.550;11.858;2022-10-24T06:09:06;19.58;;;5.43;;
58083;SDS011;43882;51.550;11.858;2022-10-24T06:11:32;19.85;;;5.88;;
58083;SDS011;43882;51.550;11.858;2022-10-24T06:13:58;21.00;;;6.13;;
58083;SDS011;43882;51.550;11.858;2022-10-24T06:16:24;19.52;;;5.45;;
58083;SDS011;43882;51.550;11.858;2022-10-24T06:18:51;19.45;;;5.70;;
58083;SDS011;43882;51.550;11.858;2022-10-24T06:21:18;17.55;;;5.40;;
58083;SDS011;43882;51.550;11.858;2022-10-24T06:23:44;17.63;;;5.45;;
58083;SDS011;43882;51.550;11.858;2022-10-24T06:26:10;19.75;;;5.75;;
58083;SDS011;43882;51.550;11.858;2022-10-24T06:28:38;19.08;;;5.60;;
58083;SDS011;43882;51.550;11.858;2022-10-24T06:31:04;19.55;;;6.15;;
58083;SDS011;43882;51.550;11.858;2022-10-24T06:33:32;20.83;;;8.20;;
58083;SDS011;43882;51.550;11.858;2022-10-24T06:35:58;17.15;;;5.35;;
58083;SDS011;43882;51.550;11.858;2022-10-24T06:38:25;17.80;;;5.13;;
58083;SDS011;43882;51.550;11.858;2022-10-24T06:40:52;16.30;;;5.30;;
58083;SDS011;43882;51.550;11.858;2022-10-24T06:43:18;19.10;;;6.07;;
58083;SDS011;43882;51.550;11.858;2022-10-24T06:45:44;19.00;;;6.28;;
58083;SDS011;43882;51.550;11.858;2022-10-24T06:48:10;18.15;;;6.30;;
58083;SDS011;43882;51.550;11.858;2022-10-24T06:50:37;17.75;;;5.03;;
58083;SDS011;43882;51.550;11.858;2022-10-24T06:53:05;16.55;;;4.97;;
58083;SDS011;43882;51.550;11.858;2022-10-24T06:55:31;16.35;;;5.15;;
58083;SDS011;43882;51.550;11.858;2022-10-24T06:57:58;22.00;;;6.35;;
58083;SDS011;43882;51.550;11.858;2022-10-24T07:00:24;17.67;;;4.80;;
58083;SDS011;43882;51.550;11.858;2022-10-24T07:02:50;18.05;;;4.53;;
58083;SDS011;43882;51.550;11.858;2022-10-24T07:05:16;19.45;;;5.25;;
58083;SDS011;43882;51.550;11.858;2022-10-24T07:07:43;18.05;;;5.00;;
58083;SDS011;43882;51.550;11.858;2022-10-24T07:10:10;28.13;;;13.55;;
58083;SDS011;43882;51.550;11.858;2022-10-24T07:12:37;23.02;;;8.85;;
58083;SDS011;43882;51.550;11.858;2022-10-24T07:15:04;18.13;;;5.55;;
58083;SDS011;43882;51.550;11.858;2022-10-24T07:17:30;19.38;;;5.10;;
58083;SDS011;43882;51.550;11.858;2022-10-24T07:22:30;15.10;;;4.30;;
58083;SDS011;43882;51.550;11.858;2022-10-24T07:24:56;17.13;;;5.70;;
58083;SDS011;43882;51.550;11.858;2022-10-24T07:27:22;17.50;;;4.82;;
58083;SDS011;43882;51.550;11.858;2022-10-24T07:29:48;17.88;;;4.78;;
58083;SDS011;43882;51.550;11.858;2022-10-24T07:32:15;17.05;;;5.35;;
58083;SDS011;43882;51.550;11.858;2022-10-24T07:34:42;18.70;;;4.90;;
58083;SDS011;43882;51.550;11.858;2022-10-24T07:37:08;16.48;;;4.50;;
58083;SDS011;43882;51.550;11.858;2022-10-24T07:39:34;17.52;;;4.40;;
58083;SDS011;43882;51.550;11.858;2022-10-24T07:42:01;18.58;;;4.80;;
58083;SDS011;43882;51.550;11.858;2022-10-24T07:44:27;19.38;;;5.60;;
58083;SDS011;43882;51.550;11.858;2022-10-24T07:46:54;16.00;;;4.40;;
58083;SDS011;43882;51.550;11.858;2022-10-24T07:49:20;16.70;;;4.28;;
58083;SDS011;43882;51.550;11.858;2022-10-24T07:51:46;16.08;;;4.20;;
58083;SDS011;43882;51.550;11.858;2022-10-24T07:54:12;17.67;;;5.80;;
58083;SDS011;43882;51.550;11.858;2022-10-24T07:56:38;18.27;;;4.68;;
58083;SDS011;43882;51.550;11.858;2022-10-24T07:59:05;17.50;;;4.63;;
58083;SDS011;43882;51.550;11.858;2022-10-24T08:01:31;17.65;;;4.22;;
58083;SDS011;43882;51.550;11.858;2022-10-24T08:03:57;15.80;;;4.10;;
58083;SDS011;43882;51.550;11.858;2022-10-24T08:06:24;17.63;;;3.75;;
58083;SDS011;43882;51.550;11.858;2022-10-24T08:08:54;16.55;;;3.95;;
58083;SDS011;43882;51.550;11.858;2022-10-24T08:11:22;15.45;;;3.70;;
58083;SDS011;43882;51.550;11.858;2022-10-24T08:13:50;16.90;;;3.70;;
58083;SDS011;43882;51.550;11.858;2022-10-24T08:16:18;12.57;;;3.13;;
58083;SDS011;43882;51.550;11.858;2022-10-24T08:18:45;14.25;;;3.67;;
58083;SDS011;43882;51.550;11.858;2022-10-24T08:21:13;14.40;;;3.30;;
58083;SDS011;43882;51.550;11.858;2022-10-24T08:23:41;12.30;;;3.25;;
58083;SDS011;43882;51.550;11.858;2022-10-24T08:26:09;15.43;;;3.47;;
58083;SDS011;43882;51.550;11.858;2022-10-24T08:28:37;18.23;;;3.72;;
58083;SDS011;43882;51.550;11.858;2022-10-24T08:31:05;16.48;;;3.58;;
58083;SDS011;43882;51.550;11.858;2022-10-24T08:33:33;15.13;;;2.90;;
58083;SDS011;43882;51.550;11.858;2022-10-24T08:36:00;13.73;;;3.35;;
58083;SDS011;43882;51.550;11.858;2022-10-24T08:38:29;18.52;;;3.70;;
58083;SDS011;43882;51.550;11.858;2022-10-24T08:40:56;14.60;;;3.17;;
58083;SDS011;43882;51.550;11.858;2022-10-24T08:43:22;19.45;;;4.40;;
58083;SDS011;43882;51.550;11.858;2022-10-24T08:45:52;15.43;;;3.45;;
58083;SDS011;43882;51.550;11.858;2022-10-24T08:48:23;16.10;;;3.33;;
58083;SDS011;43882;51.550;11.858;2022-10-24T08:50:52;14.50;;;3.05;;
58083;SDS011;43882;51.550;11.858;2022-10-24T08:53:24;14.80;;;4.28;;
58083;SDS011;43882;51.550;11.858;2022-10-24T08:55:53;13.65;;;3.00;;
58083;SDS011;43882;51.550;11.858;2022-10-24T09:01:16;12.82;;;3.00;;
58083;SDS011;43882;51.550;11.858;2022-10-24T09:03:54;17.55;;;3.60;;
58083;SDS011;43882;51.550;11.858;2022-10-24T09:06:24;14.07;;;3.25;;
58083;SDS011;43882;51.550;11.858;2022-10-24T09:08:56;15.23;;;3.30;;
58083;SDS011;43882;51.550;11.858;2022-10-24T09:11:43;17.00;;;3.93;;
58083;SDS011;43882;51.550;11.858;2022-10-24T09:14:15;16.63;;;3.75;;
58083;SDS011;43882;51.550;11.858;2022-10-24T09:16:42;13.10;;;3.25;;
58083;SDS011;43882;51.550;11.858;2022-10-24T09:19:14;16.02;;;3.40;;
58083;SDS011;43882;51.550;11.858;2022-10-24T09:21:47;15.50;;;3.00;;
58083;SDS011;43882;51.550;11.858;2022-10-24T09:27:15;11.07;;;2.92;;
58083;SDS011;43882;51.550;11.858;2022-10-24T09:29:43;16.08;;;3.95;;
58083;SDS011;43882;51.550;11.858;2022-10-24T09:32:14;13.88;;;3.88;;
58083;SDS011;43882;51.550;11.858;2022-10-24T09:34:42;15.23;;;3.10;;
58083;SDS011;43882;51.550;11.858;2022-10-24T09:37:27;14.10;;;3.15;;
58083;SDS011;43882;51.550;11.858;2022-10-24T09:42:38;15.30;;;3.65;;
58083;SDS011;43882;51.550;11.858;2022-10-24T09:48:00;15.77;;;3.20;;
58083;SDS011;43882;51.550;11.858;2022-10-24T09:50:40;16.55;;;4.05;;
58083;SDS011;43882;51.550;11.858;2022-10-24T09:53:13;17.40;;;3.38;;
58083;SDS011;43882;51.550;11.858;2022-10-24T09:55:49;17.52;;;3.80;;
58083;SDS011;43882;51.550;11.858;2022-10-24T09:58:18;15.55;;;3.50;;
58083;SDS011;43882;51.550;11.858;2022-10-24T10:00:55;14.88;;;3.10;;
58083;SDS011;43882;51.550;11.858;2022-10-24T10:03:29;12.77;;;2.95;;
58083;SDS011;43882;51.550;11.858;2022-10-24T10:05:57;17.25;;;3.30;;
58083;SDS011;43882;51.550;11.858;2022-10-24T10:08:39;16.35;;;3.20;;
58083;SDS011;43882;51.550;11.858;2022-10-24T10:11:10;15.18;;;3.38;;
58083;SDS011;43882;51.550;11.858;2022-10-24T10:13:44;12.85;;;3.10;;
58083;SDS011;43882;51.550;11.858;2022-10-24T10:16:21;13.18;;;2.88;;
58083;SDS011;43882;51.550;11.858;2022-10-24T10:21:28;11.73;;;3.00;;
58083;SDS011;43882;51.550;11.858;2022-10-24T10:26:56;14.43;;;3.20;;
58083;SDS011;43882;51.550;11.858;2022-10-24T10:29:22;15.70;;;3.63;;
58083;SDS011;43882;51.550;11.858;2022-10-24T10:34:49;16.25;;;3.75;;
58083;SDS011;43882;51.550;11.858;2022-10-24T10:37:34;16.38;;;3.38;;
58083;SDS011;43882;51.550;11.858;2022-10-24T10:45:42;14.25;;;3.15;;
58083;SDS011;43882;51.550;11.858;2022-10-24T10:53:45;15.25;;;3.58;;
58083;SDS011;43882;51.550;11.858;2022-10-24T11:10:11;14.77;;;3.05;;
58083;SDS011;43882;51.550;11.858;2022-10-24T11:12:40;18.50;;;3.95;;
58083;SDS011;43882;51.550;11.858;2022-10-24T11:15:20;13.50;;;3.22;;
58083;SDS011;43882;51.550;11.858;2022-10-24T11:18:06;11.73;;;2.88;;
58083;SDS011;43882;51.550;11.858;2022-10-24T11:23:42;14.68;;;4.05;;
58083;SDS011;43882;51.550;11.858;2022-10-24T11:26:33;16.00;;;3.97;;
58083;SDS011;43882;51.550;11.858;2022-10-24T11:31:55;12.30;;;2.90;;
58083;SDS011;43882;51.550;11.858;2022-10-24T11:34:33;15.60;;;3.42;;
58083;SDS011;43882;51.550;11.858;2022-10-24T11:40:16;13.40;;;3.22;;
58083;SDS011;43882;51.550;11.858;2022-10-24T11:42:57;13.32;;;3.25;;
58083;SDS011;43882;51.550;11.858;2022-10-24T11:45:48;14.13;;;3.20;;
58083;SDS011;43882;51.550;11.858;2022-10-24T11:48:35;13.48;;;3.50;;
58083;SDS011;43882;51.550;11.858;2022-10-24T11:51:23;16.35;;;3.30;;
58083;SDS011;43882;51.550;11.858;2022-10-24T11:53:56;13.40;;;3.20;;
58083;SDS011;43882;51.550;11.858;2022-10-24T11:56:35;13.00;;;3.08;;
58083;SDS011;43882;51.550;11.858;2022-10-24T11:59:06;12.60;;;3.03;;
58083;SDS011;43882;51.550;11.858;2022-10-24T12:20:38;16.15;;;3.80;;
58083;SDS011;43882;51.550;11.858;2022-10-24T12:23:04;14.90;;;3.40;;
58083;SDS011;43882;51.550;11.858;2022-10-24T12:25:32;13.93;;;3.70;;
58083;SDS011;43882;51.550;11.858;2022-10-24T12:28:03;17.92;;;3.50;;
58083;SDS011;43882;51.550;11.858;2022-10-24T12:30:34;13.43;;;3.22;;
58083;SDS011;43882;51.550;11.858;2022-10-24T12:33:08;17.85;;;3.90;;
58083;SDS011;43882;51.550;11.858;2022-10-24T12:40:53;15.45;;;3.80;;
58083;SDS011;43882;51.550;11.858;2022-10-24T12:48:42;14.60;;;3.43;;
58083;SDS011;43882;51.550;11.858;2022-10-24T12:51:35;17.27;;;3.57;;
58083;SDS011;43882;51.550;11.858;2022-10-24T13:01:43;13.63;;;3.30;;
58083;SDS011;43882;51.550;11.858;2022-10-24T13:04:34;14.80;;;3.35;;
58083;SDS011;43882;51.550;11.858;2022-10-24T13:07:27;15.45;;;3.33;;
58083;SDS011;43882;51.550;11.858;2022-10-24T13:13:24;12.65;;;3.10;;
58083;SDS011;43882;51.550;11.858;2022-10-24T13:16:05;14.57;;;3.00;;
58083;SDS011;43882;51.550;11.858;2022-10-24T13:21:28;15.77;;;2.80;;
58083;SDS011;43882;51.550;11.858;2022-10-24T13:26:47;18.33;;;3.33;;
58083;SDS011;43882;51.550;11.858;2022-10-24T13:31:51;13.82;;;2.95;;
58083;SDS011;43882;51.550;11.858;2022-10-24T13:34:19;13.32;;;2.83;;
58083;SDS011;43882;51.550;11.858;2022-10-24T13:36:58;13.20;;;2.90;;
58083;SDS011;43882;51.550;11.858;2022-10-24T13:39:31;12.63;;;2.83;;
58083;SDS011;43882;51.550;11.858;2022-10-24T13:42:00;15.00;;;2.83;;
58083;SDS011;43882;51.550;11.858;2022-10-24T13:58:09;11.73;;;2.83;;
58083;SDS011;43882;51.550;11.858;2022-10-24T14:00:38;13.32;;;2.83;;
58083;SDS011;43882;51.550;11.858;2022-10-24T14:03:13;14.73;;;2.92;;
58083;SDS011;43882;51.550;11.858;2022-10-24T14:05:46;12.35;;;2.80;;
58083;SDS011;43882;51.550;11.858;2022-10-24T14:08:31;15.85;;;3.55;;
58083;SDS011;43882;51.550;11.858;2022-10-24T14:11:06;12.95;;;3.00;;
58083;SDS011;43882;51.550;11.858;2022-10-24T14:13:41;13.20;;;3.00;;
58083;SDS011;43882;51.550;11.858;2022-10-24T14:16:09;11.93;;;2.80;;
58083;SDS011;43882;51.550;11.858;2022-10-24T14:18:35;13.68;;;2.97;;
58083;SDS011;43882;51.550;11.858;2022-10-24T14:21:03;14.55;;;2.88;;
58083;SDS011;43882;51.550;11.858;2022-10-24T14:23:37;13.55;;;3.33;;
58083;SDS011;43882;51.550;11.858;2022-10-24T14:28:46;12.27;;;2.70;;
58083;SDS011;43882;51.550;11.858;2022-10-24T14:31:30;11.02;;;2.75;;
58083;SDS011;43882;51.550;11.858;2022-10-24T14:33:59;13.00;;;3.00;;
58083;SDS011;43882;51.550;11.858;2022-10-24T14:36:26;14.27;;;3.05;;
58083;SDS011;43882;51.550;11.858;2022-10-24T14:38:54;11.57;;;2.60;;
58083;SDS011;43882;51.550;11.858;2022-10-24T14:41:29;11.75;;;2.83;;
58083;SDS011;43882;51.550;11.858;2022-10-24T14:43:56;12.57;;;2.90;;
58083;SDS011;43882;51.550;11.858;2022-10-24T14:46:37;13.27;;;2.90;;
58083;SDS011;43882;51.550;11.858;2022-10-24T14:51:56;12.80;;;3.10;;
58083;SDS011;43882;51.550;11.858;2022-10-24T14:54:59;15.88;;;3.75;;
58083;SDS011;43882;51.550;11.858;2022-10-24T14:57:48;13.25;;;2.95;;
58083;SDS011;43882;51.550;11.858;2022-10-24T15:00:20;12.50;;;2.97;;
58083;SDS011;43882;51.550;11.858;2022-10-24T15:02:48;13.85;;;2.78;;
58083;SDS011;43882;51.550;11.858;2022-10-24T15:07:50;12.00;;;2.70;;
58083;SDS011;43882;51.550;11.858;2022-10-24T15:17:52;14.05;;;3.00;;
58083;SDS011;43882;51.550;11.858;2022-10-24T15:20:43;17.88;;;3.60;;
58083;SDS011;43882;51.550;11.858;2022-10-24T15:23:17;11.65;;;2.78;;
58083;SDS011;43882;51.550;11.858;2022-10-24T15:25:45;13.48;;;3.00;;
58083;SDS011;43882;51.550;11.858;2022-10-24T15:28:33;14.85;;;3.05;;
58083;SDS011;43882;51.550;11.858;2022-10-24T15:31:00;9.73;;;2.70;;
58083;SDS011;43882;51.550;11.858;2022-10-24T15:33:27;14.25;;;3.75;;
58083;SDS011;43882;51.550;11.858;2022-10-24T15:35:53;10.48;;;2.45;;
58083;SDS011;43882;51.550;11.858;2022-10-24T15:38:19;14.30;;;3.50;;
58083;SDS011;43882;51.550;11.858;2022-10-24T15:40:46;12.20;;;2.97;;
58083;SDS011;43882;51.550;11.858;2022-10-24T15:43:14;10.50;;;2.50;;
58083;SDS011;43882;51.550;11.858;2022-10-24T15:45:42;13.63;;;2.72;;
58083;SDS011;43882;51.550;11.858;2022-10-24T15:48:08;11.70;;;2.80;;
58083;SDS011;43882;51.550;11.858;2022-10-24T15:50:35;11.93;;;2.90;;
58083;SDS011;43882;51.550;11.858;2022-10-24T15:53:02;11.88;;;2.75;;
58083;SDS011;43882;51.550;11.858;2022-10-24T15:55:29;11.80;;;2.78;;
58083;SDS011;43882;51.550;11.858;2022-10-24T15:57:56;11.15;;;2.90;;
58083;SDS011;43882;51.550;11.858;2022-10-24T16:00:24;11.40;;;2.85;;
58083;SDS011;43882;51.550;11.858;2022-10-24T16:02:51;11.82;;;2.83;;
58083;SDS011;43882;51.550;11.858;2022-10-24T16:05:24;11.98;;;2.88;;
58083;SDS011;43882;51.550;11.858;2022-10-24T16:07:54;12.18;;;3.28;;
58083;SDS011;43882;51.550;11.858;2022-10-24T16:10:21;11.75;;;3.22;;
58083;SDS011;43882;51.550;11.858;2022-10-24T16:12:48;13.57;;;3.13;;
58083;SDS011;43882;51.550;11.858;2022-10-24T16:15:19;12.38;;;3.00;;
58083;SDS011;43882;51.550;11.858;2022-10-24T16:17:50;13.05;;;3.13;;
58083;SDS011;43882;51.550;11.858;2022-10-24T16:20:16;13.30;;;2.92;;
58083;SDS011;43882;51.550;11.858;2022-10-24T16:22:42;14.13;;;3.10;;
58083;SDS011;43882;51.550;11.858;2022-10-24T16:25:21;12.68;;;3.03;;
58083;SDS011;43882;51.550;11.858;2022-10-24T16:27:50;14.02;;;3.47;;
58083;SDS011;43882;51.550;11.858;2022-10-24T16:30:17;12.75;;;2.92;;
58083;SDS011;43882;51.550;11.858;2022-10-24T16:32:45;12.15;;;3.00;;
58083;SDS011;43882;51.550;11.858;2022-10-24T16:35:16;12.25;;;3.15;;
58083;SDS011;43882;51.550;11.858;2022-10-24T16:37:44;13.50;;;2.92;;
58083;SDS011;43882;51.550;11.858;2022-10-24T16:40:10;12.63;;;3.10;;
58083;SDS011;43882;51.550;11.858;2022-10-24T16:42:37;12.07;;;3.10;;
58083;SDS011;43882;51.550;11.858;2022-10-24T16:45:04;13.68;;;3.35;;
58083;SDS011;43882;51.550;11.858;2022-10-24T16:47:31;12.75;;;3.20;;
58083;SDS011;43882;51.550;11.858;2022-10-24T16:49:57;12.15;;;2.88;;
58083;SDS011;43882;51.550;11.858;2022-10-24T16:52:24;11.63;;;3.10;;
58083;SDS011;43882;51.550;11.858;2022-10-24T16:54:52;14.25;;;3.20;;
58083;SDS011;43882;51.550;11.858;2022-10-24T16:57:18;12.73;;;3.20;;
58083;SDS011;43882;51.550;11.858;2022-10-24T16:59:45;10.57;;;2.97;;
58083;SDS011;43882;51.550;11.858;2022-10-24T17:02:15;13.98;;;3.40;;
58083;SDS011;43882;51.550;11.858;2022-10-24T17:04:41;14.38;;;3.10;;
58083;SDS011;43882;51.550;11.858;2022-10-24T17:07:08;14.05;;;3.28;;
58083;SDS011;43882;51.550;11.858;2022-10-24T17:09:35;13.23;;;3.30;;
58083;SDS011;43882;51.550;11.858;2022-10-24T17:12:01;15.15;;;3.33;;
58083;SDS011;43882;51.550;11.858;2022-10-24T17:14:28;12.00;;;2.92;;